Time;durP1;ratioP1;P1;durP2;ratioP2;P2;SDS_P1;SDS_P2;PMS_P1;PMS_P2;Temp;Humidity;BMP_temperature;BMP_pressure;BME280_temperature;BME280_humidity;BME280_pressure;Samples;Min_cycle;Max_cycle;Signal;HPM_P1;HPM_P2
2023/01/11 00:00:29;;;;;;;;;0.00;0.00;;;;;13.81;100.00;100941.91;5028756;28;45844;-74
2023/01/11 00:02:59;;;;;;;;;1.00;0.33;;;;;13.83;100.00;100948.09;5037051;28;45814;-74
2023/01/11 00:05:24;;;;;;;;;0.67;0.00;;;;;13.83;100.00;100941.91;5031150;28;45482;-74
2023/01/11 00:07:50;;;;;;;;;1.00;0.00;;;;;13.83;100.00;100955.19;5034066;28;46086;-75
2023/01/11 00:10:16;;;;;;;;;0.00;0.00;;;;;13.83;100.00;100948.09;5013762;28;45486;-75
2023/01/11 00:12:41;;;;;;;;;2.00;0.00;;;;;13.84;100.00;100949.84;5034782;28;45446;-74
2023/01/11 00:15:07;;;;;;;;;0.00;0.00;;;;;13.85;100.00;100941.03;5034101;28;45357;-76
2023/01/11 00:17:32;;;;;;;;;0.67;0.00;;;;;13.84;100.00;100938.34;5035422;28;45490;-75
2023/01/11 00:19:58;;;;;;;;;0.00;0.00;;;;;13.85;100.00;100940.16;5035192;28;45486;-74
2023/01/11 00:22:23;;;;;;;;;2.00;0.00;;;;;13.87;100.00;100946.34;5034264;28;53862;-75
2023/01/11 00:24:48;;;;;;;;;2.67;0.00;;;;;13.86;100.00;100931.31;5035314;28;45446;-74
2023/01/11 00:27:14;;;;;;;;;0.33;0.00;;;;;13.86;100.00;100936.59;5033570;28;59520;-75
2023/01/11 00:29:39;;;;;;;;;0.00;0.00;;;;;13.88;100.00;100940.13;5034949;28;45293;-75
2023/01/11 00:32:04;;;;;;;;;0.00;0.00;;;;;13.87;100.00;100928.63;5039811;28;54054;-74
2023/01/11 00:34:30;;;;;;;;;0.00;0.00;;;;;13.86;100.00;100923.34;5038221;28;47763;-75
2023/01/11 00:36:55;;;;;;;;;0.00;0.00;;;;;13.86;100.00;100918.91;5039035;28;57136;-75
2023/01/11 00:39:20;;;;;;;;;1.67;0.00;;;;;13.87;100.00;100909.16;5036647;28;58812;-75
2023/01/11 00:49:59;;;;;;;;;0.00;0.00;;;;;13.83;100.00;100910.94;5038224;28;45589;-76
2023/01/11 00:52:24;;;;;;;;;0.00;0.00;;;;;13.84;100.00;100898.53;5038395;28;45927;-75
2023/01/11 00:54:49;;;;;;;;;1.33;0.00;;;;;13.84;100.00;100898.53;5038171;28;45507;-74
2023/01/11 00:57:15;;;;;;;;;0.33;0.00;;;;;13.84;100.00;100898.53;5019937;28;45333;-75
2023/01/11 00:59:40;;;;;;;;;0.00;0.00;;;;;13.85;100.00;100890.59;5053447;28;45479;-75
2023/01/11 01:02:06;;;;;;;;;0.67;0.00;;;;;13.86;100.00;100894.13;5038355;28;45952;-75
2023/01/11 01:04:32;;;;;;;;;0.00;0.00;;;;;13.85;100.00;100887.06;5020518;28;45598;-74
2023/01/11 01:06:57;;;;;;;;;2.00;0.00;;;;;13.85;100.00;100897.69;5037804;28;45483;-76
2023/01/11 01:09:23;;;;;;;;;1.00;0.00;;;;;13.86;100.00;100896.78;5038456;28;45581;-77
2023/01/11 01:11:48;;;;;;;;;0.00;0.00;;;;;13.88;100.00;100895.00;5038061;28;45417;-75
2023/01/11 01:14:30;;;;;;;;;0.00;0.00;;;;;13.87;100.00;100896.78;5037746;28;45533;-75
2023/01/11 01:16:58;;;;;;;;;1.33;0.00;;;;;13.86;100.00;100878.22;5038350;28;46505;-75
2023/01/11 01:19:26;;;;;;;;;0.00;0.00;;;;;13.88;100.00;100887.03;5037356;28;45462;-75
2023/01/11 01:21:52;;;;;;;;;0.00;0.00;;;;;13.90;100.00;100882.59;5038199;28;45524;-77
2023/01/11 01:24:17;;;;;;;;;0.00;0.00;;;;;13.90;100.00;100882.59;5037773;28;45841;-75
2023/01/11 01:26:42;;;;;;;;;0.00;0.00;;;;;13.91;100.00;100879.09;5040724;28;61341;-76
2023/01/11 01:29:08;;;;;;;;;0.00;0.00;;;;;13.90;100.00;100869.34;5037318;28;52750;-75
2023/01/11 01:31:33;;;;;;;;;0.00;0.00;;;;;13.92;100.00;100864.03;5038174;28;45810;-75
2023/01/11 01:33:58;;;;;;;;;0.00;0.00;;;;;13.92;100.00;100856.97;5037197;28;45707;-74
2023/01/11 01:36:24;;;;;;;;;1.00;0.00;;;;;13.93;100.00;100858.72;5052667;28;45677;-76
2023/01/11 01:38:49;;;;;;;;;0.00;0.00;;;;;13.94;100.00;100849.88;5038189;28;45264;-74
2023/01/11 01:41:15;;;;;;;;;0.67;0.00;;;;;13.94;100.00;100867.56;5037056;28;45340;-75
2023/01/11 01:43:45;;;;;;;;;1.00;0.00;;;;;13.95;100.00;100856.06;5038947;28;45407;-76
2023/01/11 01:46:11;;;;;;;;;0.33;0.00;;;;;13.95;100.00;100859.59;5037916;28;45435;-74
2023/01/11 01:48:37;;;;;;;;;1.00;0.00;;;;;13.90;100.00;100858.72;5052613;28;45392;-76
2023/01/11 01:51:04;;;;;;;;;0.00;0.00;;;;;13.94;100.00;100851.63;5052801;28;54393;-76
2023/01/11 01:53:36;;;;;;;;;0.00;0.00;;;;;13.92;100.00;100846.34;5026291;28;45566;-75
2023/01/11 01:56:05;;;;;;;;;0.00;0.00;;;;;13.91;100.00;100860.50;5019427;28;46668;-75
2023/01/11 01:58:36;;;;;;;;;0.00;0.00;;;;;13.92;100.00;100846.34;5052588;28;45332;-75
2023/01/11 02:01:45;;;;;;;;;0.00;0.00;;;;;13.93;100.00;100866.69;5037183;28;45969;-75
2023/01/11 02:03:48;;;;;;;;;0.00;0.00;;;;;13.92;100.00;100862.28;5049309;28;45790;-75
2023/01/11 02:06:13;;;;;;;;;0.00;0.00;;;;;13.90;100.00;100866.69;5038837;28;46397;-75
2023/01/11 02:08:42;;;;;;;;;0.00;0.00;;;;;13.94;100.00;100870.22;5018389;28;61015;-75
2023/01/11 02:11:28;;;;;;;;;0.00;0.00;;;;;13.92;100.00;100866.69;5041913;28;45384;-76
2023/01/11 02:13:55;;;;;;;;;0.00;0.00;;;;;13.93;100.00;100872.00;5021733;28;45548;-76
2023/01/11 02:16:20;;;;;;;;;0.00;0.00;;;;;13.93;100.00;100873.78;5052991;28;45592;-75
2023/01/11 02:18:45;;;;;;;;;0.00;0.00;;;;;13.92;100.00;100867.59;5036757;28;45356;-75
2023/01/11 02:21:20;;;;;;;;;0.00;0.00;;;;;13.95;100.00;100878.16;5042524;28;45457;-76
2023/01/11 02:24:10;;;;;;;;;0.00;0.00;;;;;13.96;100.00;100869.34;5052142;28;45470;-74
2023/01/11 02:26:54;;;;;;;;;0.33;0.00;;;;;13.97;100.00;100868.47;5037412;28;46681;-75
2023/01/11 02:29:28;;;;;;;;;0.00;0.00;;;;;13.96;100.00;100857.84;5034902;28;45245;-77
2023/01/11 02:32:11;;;;;;;;;0.00;0.00;;;;;13.93;100.00;100866.69;5037163;28;45522;-75
2023/01/11 02:34:55;;;;;;;;;0.00;0.00;;;;;13.96;100.00;100848.13;5037264;28;45421;-76
2023/01/11 02:37:28;;;;;;;;;0.00;0.00;;;;;13.96;100.00;100853.41;5037052;28;46163;-75
2023/01/11 02:40:18;;;;;;;;;0.00;0.00;;;;;13.95;100.00;100859.59;5044972;28;45444;-74
2023/01/11 02:45:53;;;;;;;;;0.00;0.00;;;;;13.95;100.00;100841.00;5056691;28;45285;-75
2023/01/11 02:48:41;;;;;;;;;0.00;0.00;;;;;13.97;100.00;100868.47;5036785;28;48024;-76
2023/01/11 02:51:11;;;;;;;;;0.00;0.00;;;;;13.96;100.00;100853.41;5027378;28;45414;-74
2023/01/11 02:53:47;;;;;;;;;0.00;0.00;;;;;13.98;100.00;100850.75;5018513;28;45794;-75
2023/01/11 02:56:17;;;;;;;;;0.00;0.00;;;;;13.98;100.00;100850.75;5018425;28;45240;-75
2023/01/11 02:58:45;;;;;;;;;0.00;0.00;;;;;13.99;100.00;100853.41;5036090;28;46219;-74
2023/01/11 03:01:11;;;;;;;;;0.00;0.00;;;;;13.99;100.00;100848.09;5018452;28;45367;-75
2023/01/11 03:03:37;;;;;;;;;0.00;0.00;;;;;13.98;100.00;100841.00;5018626;28;45474;-74
2023/01/11 03:06:16;;;;;;;;;0.00;0.00;;;;;14.01;100.00;100841.03;5036152;28;45274;-75
2023/01/11 03:09:01;;;;;;;;;0.00;0.00;;;;;14.02;100.00;100825.97;5011613;28;45634;-77
2023/01/11 03:14:42;;;;;;;;;0.00;0.00;;;;;14.02;100.00;100832.16;5039986;28;45683;-74
2023/01/11 03:17:40;;;;;;;;;0.00;0.00;;;;;14.02;100.00;100840.13;5036603;28;45438;-74
2023/01/11 03:20:20;;;;;;;;;0.00;0.00;;;;;14.02;100.00;100831.28;5032234;28;45376;-74
2023/01/11 03:22:54;;;;;;;;;0.00;0.00;;;;;14.04;100.00;100835.69;5035747;28;45486;-75
2023/01/11 03:25:19;;;;;;;;;0.00;0.00;;;;;14.06;100.00;100839.25;5052232;28;45220;-75
2023/01/11 03:27:59;;;;;;;;;0.00;0.00;;;;;14.06;100.00;100840.97;5035856;28;45455;-76
2023/01/11 03:30:31;;;;;;;;;0.00;0.00;;;;;14.08;100.00;100853.38;5019806;28;46745;-74
2023/01/11 03:33:09;;;;;;;;;0.00;0.00;;;;;14.08;100.00;100845.41;5035080;28;45398;-75
2023/01/11 03:35:44;;;;;;;;;0.00;0.00;;;;;14.08;100.00;100850.72;5036171;28;45364;-75
2023/01/11 03:38:22;;;;;;;;;0.00;0.00;;;;;14.09;100.00;100849.81;5018153;28;45351;-75
2023/01/11 03:40:54;;;;;;;;;0.00;0.00;;;;;14.10;100.00;100859.56;5042912;28;46475;-74
2023/01/11 03:43:20;;;;;;;;;0.67;0.00;;;;;14.10;100.00;100850.72;5042962;28;45371;-76
2023/01/11 03:46:47;;;;;;;;;0.00;0.00;;;;;14.09;100.00;100849.81;5016796;28;45435;-74
2023/01/11 03:49:18;;;;;;;;;0.00;0.00;;;;;14.08;100.00;100857.81;4995105;28;45600;-74
2023/01/11 03:51:45;;;;;;;;;0.00;0.00;;;;;14.04;100.00;100846.31;5017420;28;47519;-75
2023/01/11 03:54:14;;;;;;;;;0.00;0.00;;;;;14.04;100.00;100856.91;5050932;28;45389;-74
2023/01/11 03:57:00;;;;;;;;;0.00;0.00;;;;;14.03;100.00;100862.25;5018273;28;45390;-75
2023/01/11 03:59:26;;;;;;;;;0.67;0.00;;;;;14.02;100.00;100856.06;5031625;28;45391;-77
2023/01/11 04:01:55;;;;;;;;;0.00;0.00;;;;;14.00;100.00;100849.84;5038133;28;45430;-76
2023/01/11 04:04:21;;;;;;;;;0.00;0.00;;;;;14.01;100.00;100856.03;5049572;28;45529;-76
2023/01/11 04:06:47;;;;;;;;;0.00;0.00;;;;;13.98;100.00;100861.38;5017612;28;45600;-77
2023/01/11 04:09:12;;;;;;;;;0.00;0.00;;;;;13.95;100.00;100854.28;5037689;28;50284;-76
2023/01/11 04:11:37;;;;;;;;;0.00;0.00;;;;;13.92;100.00;100872.00;5034020;28;55932;-75
2023/01/11 04:14:03;;;;;;;;;0.00;0.00;;;;;13.89;100.00;100859.59;5035045;28;58784;-76
2023/01/11 04:16:28;;;;;;;;;0.00;0.00;;;;;13.88;100.00;100860.50;5034769;28;45240;-74
2023/01/11 04:18:53;;;;;;;;;0.00;0.00;;;;;13.88;100.00;100855.19;5035339;28;45578;-74
2023/01/11 04:21:19;;;;;;;;;0.00;0.00;;;;;13.87;100.00;100856.09;5035477;28;47490;-74
2023/01/11 04:23:44;;;;;;;;;1.00;0.00;;;;;13.86;100.00;100846.38;5034793;28;56930;-76
2023/01/11 04:26:09;;;;;;;;;0.00;0.00;;;;;13.85;100.00;100865.84;5035169;28;45882;-76
2023/01/11 04:28:35;;;;;;;;;0.00;0.00;;;;;13.85;100.00;100860.53;5000641;28;49574;-74
2023/01/11 04:31:00;;;;;;;;;0.00;0.00;;;;;13.85;100.00;100872.03;5031987;28;56203;-74
2023/01/11 04:33:25;;;;;;;;;0.00;0.00;;;;;13.83;100.00;100879.09;5035241;28;53442;-74
2023/01/11 04:35:51;;;;;;;;;0.00;0.00;;;;;13.85;100.00;100887.06;5034894;28;52327;-76
2023/01/11 04:38:17;;;;;;;;;0.00;0.00;;;;;13.83;100.00;100892.34;5051017;28;45589;-76
2023/01/11 04:40:43;;;;;;;;;3.00;0.00;;;;;13.80;100.00;100929.53;5050658;28;45684;-74
2023/01/11 04:43:08;;;;;;;;;0.00;0.00;;;;;13.70;100.00;100943.69;5034663;28;45407;-75
2023/01/11 04:45:33;;;;;;;;;1.00;0.00;;;;;13.56;100.00;100942.78;5038789;28;54282;-75
2023/01/11 04:47:59;;;;;;;;;0.00;0.00;;;;;13.38;100.00;100946.31;5040224;28;45343;-76
2023/01/11 04:50:25;;;;;;;;;0.00;0.00;;;;;13.26;100.00;100940.97;5025595;28;56065;-75
2023/01/11 04:52:50;;;;;;;;;0.00;0.00;;;;;13.16;100.00;100939.19;5035273;28;45549;-75
2023/01/11 04:55:16;;;;;;;;;0.00;0.00;;;;;13.05;100.00;100953.28;5034879;28;45481;-76
2023/01/11 04:57:45;;;;;;;;;0.00;0.00;;;;;12.94;100.00;100955.00;5036939;28;46470;-74
2023/01/11 05:00:12;;;;;;;;;3.00;0.00;;;;;12.85;100.00;100952.34;5033861;28;46597;-75
2023/01/11 05:02:38;;;;;;;;;0.00;0.00;;;;;12.74;100.00;100956.72;5034811;28;45577;-74
2023/01/11 05:05:05;;;;;;;;;0.00;0.00;;;;;12.69;100.00;100969.06;5017972;28;45429;-75
2023/01/11 05:07:30;;;;;;;;;1.00;0.00;;;;;12.64;100.00;100976.09;5035269;28;45535;-76
2023/01/11 05:09:56;;;;;;;;;3.00;0.00;;;;;12.59;100.00;100984.00;5034481;28;47052;-76
2023/01/11 05:12:21;;;;;;;;;1.67;0.00;;;;;12.54;100.00;100980.47;5037054;28;45382;-75
2023/01/11 05:14:46;;;;;;;;;0.00;0.00;;;;;12.53;100.00;100986.63;5035247;28;49681;-75
2023/01/11 05:17:13;;;;;;;;;0.00;0.00;;;;;12.51;100.00;100998.97;5037731;28;45462;-76
2023/01/11 05:19:39;;;;;;;;;0.00;0.00;;;;;12.47;100.00;100990.13;5038415;28;45847;-77
2023/01/11 05:22:04;;;;;;;;;2.67;0.33;;;;;12.50;100.00;100994.56;5039614;28;45396;-75
2023/01/11 05:24:29;;;;;;;;;0.00;0.00;;;;;12.49;100.00;100998.97;5043382;28;54973;-75
2023/01/11 05:26:55;;;;;;;;;0.33;0.00;;;;;12.52;100.00;100999.00;5037115;28;45557;-74
2023/01/11 05:29:20;;;;;;;;;0.00;0.00;;;;;12.52;100.00;101003.41;5037945;28;48633;-74
2023/01/11 05:31:46;;;;;;;;;0.00;0.00;;;;;12.55;100.00;101022.84;5020139;28;45595;-75
2023/01/11 05:34:12;;;;;;;;;1.00;0.00;;;;;12.57;100.00;101029.06;5022246;28;46967;-74
2023/01/11 05:36:38;;;;;;;;;1.33;0.00;;;;;12.55;100.00;101027.25;5038702;28;45932;-76
2023/01/11 05:39:04;;;;;;;;;0.00;0.00;;;;;12.53;100.00;101039.63;5020514;28;46349;-76
2023/01/11 05:41:30;;;;;;;;;2.00;0.00;;;;;12.51;100.00;101042.22;5022689;28;45456;-75
2023/01/11 05:46:59;;;;;;;;;1.00;1.00;;;;;12.54;100.00;101055.50;4993607;28;45385;-75
2023/01/11 05:49:25;;;;;;;;;2.67;1.00;;;;;12.51;100.00;101058.13;4993461;28;45853;-74
2023/01/11 05:51:50;;;;;;;;;1.67;0.00;;;;;12.52;100.00;101061.69;5016464;28;46403;-75
2023/01/11 05:54:15;;;;;;;;;0.00;0.00;;;;;12.50;100.00;101047.53;5041253;28;55750;-80
2023/01/11 05:56:41;;;;;;;;;0.00;0.00;;;;;12.48;100.00;101047.53;5037398;28;45423;-76
2023/01/11 05:59:07;;;;;;;;;1.00;0.00;;;;;12.50;100.00;101060.75;5036516;28;46624;-77
2023/01/11 06:01:33;;;;;;;;;1.00;1.00;;;;;12.50;100.00;101080.19;5038379;28;45513;-77
2023/01/11 06:03:58;;;;;;;;;1.33;0.00;;;;;12.49;100.00;101072.25;5043484;28;45366;-75
2023/01/11 06:06:24;;;;;;;;;2.33;0.00;;;;;12.45;100.00;101067.78;5040389;28;49780;-76
2023/01/11 06:08:49;;;;;;;;;5.00;0.00;;;;;12.42;100.00;101079.25;5036856;28;46510;-75
2023/01/11 06:11:15;;;;;;;;;0.00;0.00;;;;;12.43;100.00;101070.44;5031002;28;56918;-78
2023/01/11 06:13:40;;;;;;;;;2.00;1.00;;;;;12.42;100.00;101068.69;5019019;28;45501;-76
2023/01/11 06:16:09;;;;;;;;;1.33;0.00;;;;;12.40;100.00;101072.16;5036878;28;45354;-76
2023/01/11 06:18:36;;;;;;;;;0.00;0.00;;;;;12.36;100.00;101078.31;5036881;28;45772;-74
2023/01/11 06:21:01;;;;;;;;;0.00;0.00;;;;;12.31;100.00;101086.25;5038636;28;45478;-75
2023/01/11 06:23:29;;;;;;;;;2.00;1.00;;;;;12.30;100.00;101090.66;5036553;28;45513;-75
2023/01/11 06:25:54;;;;;;;;;2.67;0.00;;;;;12.28;100.00;101092.38;5018924;28;45483;-76
2023/01/11 06:28:20;;;;;;;;;1.00;0.00;;;;;12.27;100.00;101095.91;5054237;28;45525;-74
2023/01/11 06:30:52;;;;;;;;;1.67;0.00;;;;;12.27;100.00;101110.91;5038850;28;45459;-75
2023/01/11 06:33:18;;;;;;;;;1.00;1.00;;;;;12.24;100.00;101106.47;5037439;28;45431;-76
2023/01/11 06:35:43;;;;;;;;;0.67;0.67;;;;;12.22;100.00;101102.03;5037081;28;45316;-78
2023/01/11 06:38:11;;;;;;;;;3.00;0.00;;;;;12.22;100.00;101110.88;5036307;28;60400;-76
2023/01/11 06:40:38;;;;;;;;;0.33;0.33;;;;;12.19;100.00;101132.00;5051456;28;45548;-77
2023/01/11 06:43:03;;;;;;;;;2.00;0.33;;;;;12.17;100.00;101130.22;5019503;28;45530;-75
2023/01/11 06:45:29;;;;;;;;;2.33;0.00;;;;;12.15;100.00;101134.66;5020491;28;45534;-75
2023/01/11 06:47:54;;;;;;;;;2.00;1.00;;;;;12.16;100.00;101142.59;5036362;28;47424;-76
2023/01/11 06:50:20;;;;;;;;;2.67;0.67;;;;;12.16;100.00;101147.00;5034062;28;60652;-75
2023/01/11 06:52:56;;;;;;;;;2.00;0.00;;;;;12.13;100.00;101139.91;5030272;28;45861;-76
2023/01/11 06:55:22;;;;;;;;;0.00;0.00;;;;;12.14;100.00;101148.72;5032589;28;45466;-75
2023/01/11 06:57:48;;;;;;;;;3.33;0.00;;;;;12.15;100.00;101158.47;5030079;28;45982;-78
2023/01/11 07:00:15;;;;;;;;;1.00;1.00;;;;;12.16;100.00;101147.88;5032474;28;48597;-75
2023/01/11 07:02:40;;;;;;;;;0.00;0.00;;;;;12.19;100.00;101157.59;5029088;28;45589;-77
2023/01/11 07:05:06;;;;;;;;;2.67;1.00;;;;;12.20;100.00;101151.47;5030565;28;46761;-75
2023/01/11 07:07:31;;;;;;;;;2.67;1.00;;;;;12.19;100.00;101145.25;5034293;28;47115;-74
2023/01/11 07:09:56;;;;;;;;;3.00;1.00;;;;;12.17;100.00;101149.66;5039225;28;59241;-75
2023/01/11 07:12:21;;;;;;;;;0.00;0.00;;;;;12.18;100.00;101153.19;5036723;28;51287;-75
2023/01/11 07:14:47;;;;;;;;;3.67;1.33;;;;;12.16;100.00;101157.59;5039587;28;52031;-76
2023/01/11 07:17:12;;;;;;;;;3.67;1.00;;;;;12.12;100.00;101148.72;5015251;28;46244;-77
2023/01/11 07:19:37;;;;;;;;;2.00;0.00;;;;;12.04;100.00;101166.28;5029893;28;45980;-79
2023/01/11 07:22:03;;;;;;;;;2.00;1.00;;;;;11.95;100.00;101158.25;5033534;28;55791;-79
2023/01/11 07:24:28;;;;;;;;;1.67;1.00;;;;;11.86;100.00;101160.78;5044835;28;52818;-79
2023/01/11 07:26:55;;;;;;;;;3.33;0.00;;;;;11.80;100.00;101165.09;5031016;28;57805;-78
2023/01/11 07:29:20;;;;;;;;;1.00;1.00;;;;;11.72;100.00;101165.91;5034682;28;45609;-78
2023/01/11 07:31:46;;;;;;;;;2.67;0.67;;;;;11.65;100.00;101171.97;5029855;28;45448;-77
2023/01/11 07:34:11;;;;;;;;;3.00;0.00;;;;;11.57;100.00;101182.47;5028012;28;47090;-77
2023/01/11 07:36:38;;;;;;;;;2.00;1.00;;;;;11.52;100.00;101193.00;5030292;28;46467;-78
2023/01/11 07:39:04;;;;;;;;;3.33;0.00;;;;;11.49;100.00;101198.22;5030493;28;45533;-77
2023/01/11 07:44:13;;;;;;;;;0.00;0.00;;;;;11.45;100.00;101209.66;5032378;28;45649;-76
2023/01/11 07:46:39;;;;;;;;;1.67;0.67;;;;;11.49;100.00;101210.56;5013392;28;46261;-78
2023/01/11 07:49:04;;;;;;;;;1.00;1.00;;;;;11.54;100.00;101222.09;5026548;28;53946;-77
2023/01/11 07:51:29;;;;;;;;;2.67;0.00;;;;;11.55;100.00;101229.16;5030314;28;46314;-78
2023/01/11 07:53:55;;;;;;;;;2.67;1.00;;;;;11.61;100.00;101249.50;5013082;28;52319;-77
2023/01/11 07:56:20;;;;;;;;;0.00;0.00;;;;;11.61;100.00;101252.16;5030580;28;46313;-76
2023/01/11 07:58:45;;;;;;;;;0.00;0.00;;;;;11.61;100.00;101250.41;5030862;28;52913;-81
2023/01/11 08:01:11;;;;;;;;;1.00;1.00;;;;;11.63;100.00;101256.59;5030071;28;51422;-78
2023/01/11 08:03:36;;;;;;;;;2.00;1.00;;;;;11.63;100.00;101261.91;5013656;28;53520;-82
2023/01/11 08:06:01;;;;;;;;;0.67;0.00;;;;;11.65;100.00;101265.44;5033475;28;59301;-79
2023/01/11 08:08:27;;;;;;;;;2.67;0.00;;;;;11.64;100.00;101276.00;5032801;28;57265;-76
2023/01/11 08:16:20;;;;;;;;;0.00;0.00;;;;;11.65;100.00;101298.94;5033007;28;45455;-78
2023/01/11 08:18:45;;;;;;;;;1.67;0.00;;;;;11.64;100.00;101287.47;5045358;28;55202;-77
2023/01/11 08:21:11;;;;;;;;;3.00;0.00;;;;;11.67;100.00;101307.81;5036666;28;45485;-80
2023/01/11 08:23:36;;;;;;;;;0.00;0.00;;;;;11.68;100.00;101296.34;5031643;28;45576;-78
2023/01/11 08:26:01;;;;;;;;;0.67;0.33;;;;;11.70;100.00;101302.53;5036165;28;45989;-79
2023/01/11 08:28:27;;;;;;;;;1.00;0.00;;;;;11.71;100.00;101309.59;5030392;28;58760;-78
2023/01/11 08:30:52;;;;;;;;;0.00;0.00;;;;;11.71;100.00;101312.25;5033618;28;53520;-80
2023/01/11 08:33:18;;;;;;;;;1.00;0.00;;;;;11.71;100.00;101326.34;5032330;28;54253;-80
2023/01/11 08:35:43;;;;;;;;;3.67;0.67;;;;;11.74;100.00;101333.47;5032032;28;57977;-78
2023/01/11 08:38:08;;;;;;;;;0.00;0.00;;;;;11.74;100.00;101331.72;5016147;28;45554;-77
2023/01/11 08:40:35;;;;;;;;;0.00;0.00;;;;;11.76;100.00;101335.25;5031067;28;46706;-77
2023/01/11 08:43:00;;;;;;;;;1.33;0.00;;;;;11.74;100.00;101331.72;5032176;28;45359;-80
2023/01/11 08:45:26;;;;;;;;;1.00;0.00;;;;;11.75;100.00;101337.88;5020833;28;46040;-79
2023/01/11 08:47:52;;;;;;;;;0.00;0.00;;;;;11.74;100.00;101337.00;5036217;28;45343;-78
2023/01/11 08:50:17;;;;;;;;;2.00;0.00;;;;;11.76;100.00;101335.25;5035383;28;46357;-78
2023/01/11 08:52:43;;;;;;;;;3.00;1.00;;;;;11.79;100.00;101345.91;5036705;28;46012;-78
2023/01/11 08:55:09;;;;;;;;;3.00;2.00;;;;;11.83;100.00;101351.28;5047287;28;46191;-77
2023/01/11 08:57:35;;;;;;;;;1.00;1.00;;;;;11.87;100.00;101353.97;5017613;28;45439;-76
2023/01/11 09:00:03;;;;;;;;;0.67;0.00;;;;;11.90;100.00;101347.84;5016763;28;46906;-77
2023/01/11 09:02:28;;;;;;;;;2.33;1.00;;;;;11.93;100.00;101359.38;5035812;28;45737;-76
2023/01/11 09:04:53;;;;;;;;;1.00;1.00;;;;;11.97;100.00;101368.22;5039387;28;60286;-78
2023/01/11 09:07:19;;;;;;;;;1.67;0.00;;;;;11.94;100.00;101370.84;5049142;28;52490;-76
2023/01/11 09:09:44;;;;;;;;;0.33;0.33;;;;;11.97;100.00;101368.22;5035539;28;45574;-76
2023/01/11 09:12:10;;;;;;;;;1.67;1.67;;;;;11.97;100.00;101373.50;5040593;28;45493;-77
2023/01/11 09:14:35;;;;;;;;;1.33;1.33;;;;;11.99;100.00;101371.78;5050311;28;45622;-77
2023/01/11 09:17:00;;;;;;;;;1.67;1.67;;;;;11.99;100.00;101377.97;5034492;28;45459;-75
2023/01/11 09:19:26;;;;;;;;;5.00;0.33;;;;;12.01;100.00;101375.34;5035498;28;45540;-78
2023/01/11 09:21:51;;;;;;;;;2.00;0.00;;;;;12.00;100.00;101392.09;5034251;28;46996;-78
2023/01/11 09:24:17;;;;;;;;;0.00;0.00;;;;;12.01;100.00;101393.84;5035797;28;45515;-76
2023/01/11 09:26:42;;;;;;;;;5.00;0.00;;;;;12.01;100.00;101409.75;5036067;28;45855;-75
2023/01/11 09:29:09;;;;;;;;;1.33;0.00;;;;;11.99;100.00;101399.13;5050950;28;51070;-75
2023/01/11 09:31:34;;;;;;;;;0.00;0.00;;;;;11.96;100.00;101401.72;5036263;28;45347;-74
2023/01/11 09:34:00;;;;;;;;;0.00;0.00;;;;;11.93;100.00;101404.34;5035806;28;45478;-75
2023/01/11 09:36:26;;;;;;;;;1.00;0.00;;;;;11.86;100.00;101407.75;5036079;28;45221;-74
2023/01/11 09:38:56;;;;;;;;;1.00;1.00;;;;;11.83;100.00;101409.50;5036522;28;45487;-76
2023/01/11 09:41:43;;;;;;;;;1.00;1.00;;;;;11.77;100.00;101416.44;5019633;28;45578;-75
2023/01/11 09:44:15;;;;;;;;;0.67;0.67;;;;;11.74;100.00;101411.06;5036044;28;45702;-74
2023/01/11 09:46:42;;;;;;;;;2.67;1.00;;;;;11.75;100.00;101414.59;5036417;28;45364;-74
2023/01/11 09:49:19;;;;;;;;;0.00;0.00;;;;;11.73;100.00;101421.63;5051953;28;46033;-75
2023/01/11 09:51:45;;;;;;;;;2.00;0.00;;;;;11.71;100.00;101431.28;5019328;28;45353;-75
2023/01/11 09:54:17;;;;;;;;;2.00;1.00;;;;;11.69;100.00;101439.22;5051442;28;46512;-74
2023/01/11 09:56:52;;;;;;;;;2.00;1.00;;;;;11.65;100.00;101434.72;5013970;28;45738;-75
2023/01/11 09:59:28;;;;;;;;;1.00;0.00;;;;;11.63;100.00;101448.81;5009042;22;45936;-76
2023/01/11 10:02:10;;;;;;;;;1.33;0.00;;;;;11.64;100.00;101445.28;5012055;28;45519;-75
2023/01/11 10:04:57;;;;;;;;;3.00;0.00;;;;;11.58;100.00;101453.13;4992749;28;47300;-75
2023/01/11 10:07:42;;;;;;;;;2.00;1.00;;;;;11.58;100.00;101461.94;5010129;28;45496;-77
2023/01/11 10:10:25;;;;;;;;;1.33;0.00;;;;;11.52;100.00;101460.09;5014548;28;45369;-77
2023/01/11 10:13:09;;;;;;;;;2.00;1.00;;;;;11.55;100.00;101465.41;5013947;28;45333;-76
2023/01/11 10:15:37;;;;;;;;;0.00;0.00;;;;;11.56;100.00;101463.69;5015657;28;47338;-76
2023/01/11 10:18:32;;;;;;;;;0.00;0.00;;;;;11.57;100.00;101470.75;5016190;28;45429;-76
2023/01/11 10:21:10;;;;;;;;;1.00;0.00;;;;;11.55;100.00;101460.13;4997029;28;45449;-76
2023/01/11 10:23:49;;;;;;;;;2.00;0.00;;;;;11.55;100.00;101456.59;5005134;28;45502;-75
2023/01/11 10:26:27;;;;;;;;;3.00;0.00;;;;;11.53;100.00;101450.41;5015025;28;45848;-77
2023/01/11 10:29:16;;;;;;;;;0.00;0.00;;;;;11.54;100.00;101455.72;5010091;28;45560;-75
2023/01/11 10:32:52;;;;;;;;;0.00;0.00;;;;;11.53;100.00;101460.97;5009908;28;45514;-77
2023/01/11 10:42:51;;;;;;;;;1.67;1.00;;;;;11.59;100.00;101469.00;5007876;28;45492;-75
2023/01/11 10:45:31;;;;;;;;;2.00;0.00;;;;;11.62;100.00;101463.78;4997031;28;45440;-74
2023/01/11 10:48:11;;;;;;;;;3.00;0.00;;;;;11.65;100.00;101469.13;5005642;28;46414;-76
2023/01/11 10:51:00;;;;;;;;;2.00;0.00;;;;;11.68;100.00;101465.66;5013222;28;45527;-78
2023/01/11 10:53:33;;;;;;;;;2.67;1.00;;;;;11.70;100.00;101470.09;5011156;28;45420;-74
2023/01/11 10:56:01;;;;;;;;;4.67;0.00;;;;;11.72;100.00;101476.31;5010762;28;45472;-75
2023/01/11 10:58:43;;;;;;;;;3.00;0.67;;;;;11.77;100.00;101471.06;4997102;28;45520;-75
2023/01/11 11:01:31;;;;;;;;;3.00;0.00;;;;;11.82;100.00;101487.06;5001202;28;45546;-73
2023/01/11 11:04:17;;;;;;;;;2.33;1.00;;;;;11.87;100.00;101483.63;5007821;28;45646;-74
2023/01/11 11:06:52;;;;;;;;;0.00;0.00;;;;;11.92;100.00;101494.28;4994184;28;45513;-74
2023/01/11 11:09:46;;;;;;;;;1.00;1.00;;;;;11.94;100.00;101498.75;5000139;28;45936;-75
2023/01/11 11:12:35;;;;;;;;;0.67;0.33;;;;;11.99;100.00;101498.81;5001358;28;45493;-74
2023/01/11 11:15:45;;;;;;;;;2.00;1.00;;;;;12.04;100.00;101494.50;5012874;28;45295;-75
2023/01/11 11:18:10;;;;;;;;;3.67;1.00;;;;;12.07;100.00;101484.81;4977743;28;45436;-76
2023/01/11 11:20:36;;;;;;;;;1.00;1.00;;;;;12.15;100.00;101492.91;4994557;28;56191;-75
2023/01/11 11:23:01;;;;;;;;;0.67;0.00;;;;;12.19;100.00;101494.69;5004658;28;45261;-76
2023/01/11 11:25:46;;;;;;;;;1.33;0.33;;;;;12.26;100.00;101501.00;5005170;28;49988;-77
2023/01/11 11:28:21;;;;;;;;;0.33;0.00;;;;;12.30;100.00;101503.72;5006885;28;45598;-76
2023/01/11 11:30:46;;;;;;;;;0.00;0.00;;;;;12.43;100.00;101498.59;5006666;28;46116;-77
2023/01/11 11:33:17;;;;;;;;;0.33;0.33;;;;;12.52;100.00;101511.97;5014397;28;45238;-75
2023/01/11 11:35:45;;;;;;;;;0.67;0.00;;;;;12.64;100.00;101520.09;5012663;28;45352;-76
2023/01/11 11:38:31;;;;;;;;;1.00;1.00;;;;;12.73;100.00;101516.66;5007815;28;45487;-76
2023/01/11 11:41:11;;;;;;;;;0.33;0.33;;;;;12.80;100.00;101505.28;5013326;28;47679;-76
2023/01/11 11:43:47;;;;;;;;;4.00;1.00;;;;;12.91;100.00;101519.53;5006515;28;45365;-74
2023/01/11 11:46:12;;;;;;;;;1.00;0.00;;;;;13.02;100.00;101515.25;4995012;28;45819;-74
2023/01/11 11:48:38;;;;;;;;;3.67;1.00;;;;;13.07;100.00;101516.22;5012971;28;45443;-73
2023/01/11 11:51:06;;;;;;;;;2.67;1.00;;;;;13.04;100.00;101500.25;5007201;28;47645;-74
2023/01/11 11:53:37;;;;;;;;;1.00;1.00;;;;;13.03;100.00;101517.03;5012221;28;45436;-77
2023/01/11 11:56:13;;;;;;;;;0.00;0.00;;;;;12.99;100.00;101523.16;5011846;28;45477;-74
2023/01/11 11:58:40;;;;;;;;;0.67;0.00;;;;;12.95;100.00;101520.50;4993193;28;45511;-74
2023/01/11 12:01:07;;;;;;;;;2.00;0.00;;;;;13.06;100.00;101540.94;4972061;28;1166786;-73